Time;durP1;ratioP1;P1;durP2;ratioP2;P2;SDS_P1;SDS_P2;PMS_P1;PMS_P2;Temp;Humidity;BMP_temperature;BMP_pressure;BME280_temperature;BME280_humidity;BME280_pressure;Samples;Min_cycle;Max_cycle;Signal;HPM_P1;HPM_P2
2022/08/01 00:02:14;;;;;;;;;;;;;;;21.16;56.47;100045.05;1662101;85;20213;-68
2022/08/01 00:04:41;;;;;;;;;;;;;;;21.16;56.51;100045.86;1656993;85;20526;-68
2022/08/01 00:07:08;;;;;;;;;;;;;;;21.15;56.50;100049.69;1648106;85;20193;-68
2022/08/01 00:09:35;;;;;;;;;;;;;;;21.10;56.71;100049.94;1654978;85;20183;-68
2022/08/01 00:12:02;;;;;;;;;;;;;;;21.07;56.58;100047.33;1651045;85;20140;-68
2022/08/01 00:14:28;;;;;;;;;;;;;;;21.05;56.53;100046.86;1648156;85;20567;-68
2022/08/01 00:16:54;;;;;;;;;;;;;;;21.03;56.70;100043.72;1648083;85;21246;-66
2022/08/01 00:19:21;;;;;;;;;;;;;;;20.99;56.74;100048.25;1649280;85;20181;-67
2022/08/01 00:21:47;;;;;;;;;;;;;;;20.95;56.70;100048.67;1646363;85;20217;-67
2022/08/01 00:24:14;;;;;;;;;;;;;;;20.94;56.78;100047.67;1647342;85;20189;-68
2022/08/01 00:26:41;;;;;;;;;;;;;;;20.90;56.77;100041.34;1646574;85;20183;-66
2022/08/01 00:29:09;;;;;;;;;;;;;;;20.86;56.81;100045.27;1625161;85;20154;-67
2022/08/01 00:31:35;;;;;;;;;;;;;;;20.80;56.86;100042.01;1647013;85;20413;-67
2022/08/01 00:34:02;;;;;;;;;;;;;;;20.79;56.99;100039.61;1643553;85;20165;-67
2022/08/01 00:36:28;;;;;;;;;;;;;;;20.77;57.23;100038.61;1646497;85;20150;-67
2022/08/01 00:38:55;;;;;;;;;;;;;;;20.75;57.22;100039.50;1647115;85;20194;-67
2022/08/01 00:41:21;;;;;;;;;;;;;;;20.74;57.17;100040.64;1647646;85;21759;-67
2022/08/01 00:43:48;;;;;;;;;;;;;;;20.74;57.17;100030.35;1646527;85;20141;-68
2022/08/01 00:46:15;;;;;;;;;;;;;;;20.74;57.21;100033.86;1647234;85;20233;-67
2022/08/01 00:48:41;;;;;;;;;;;;;;;20.73;57.48;100030.92;1646671;85;21020;-68
2022/08/01 00:51:08;;;;;;;;;;;;;;;20.71;57.55;100027.75;1662221;85;20179;-67
2022/08/01 00:53:34;;;;;;;;;;;;;;;20.74;57.44;100031.71;1646712;85;22083;-67
2022/08/01 00:56:01;;;;;;;;;;;;;;;20.74;57.51;100035.21;1646607;85;20203;-67
2022/08/01 00:58:30;;;;;;;;;;;;;;;20.73;57.62;100028.20;1647123;85;20218;-67
2022/08/01 01:00:56;;;;;;;;;;;;;;;20.71;57.66;100025.59;1647187;85;20284;-67
2022/08/01 01:03:23;;;;;;;;;;;;;;;20.67;57.73;100028.20;1649883;85;20140;-67
2022/08/01 01:06:14;;;;;;;;;;;;;;;20.66;57.75;100029.88;1646414;85;21174;-67
2022/08/01 01:08:44;;;;;;;;;;;;;;;20.65;57.85;100025.59;1660851;85;20169;-67
2022/08/01 01:11:23;;;;;;;;;;;;;;;20.57;58.04;100033.50;1647174;85;20210;-66
2022/08/01 01:13:56;;;;;;;;;;;;;;;20.54;58.25;100026.59;1642260;85;20215;-68
2022/08/01 01:16:22;;;;;;;;;;;;;;;20.53;58.39;100027.17;1647573;85;20209;-67
2022/08/01 01:18:55;;;;;;;;;;;;;;;20.52;58.42;100022.84;1647027;85;23283;-67
2022/08/01 01:21:36;;;;;;;;;;;;;;;20.53;58.42;100021.74;1647417;85;20143;-68
2022/08/01 01:24:29;;;;;;;;;;;;;;;20.55;58.63;100032.24;1645618;85;20147;-67
2022/08/01 01:27:19;;;;;;;;;;;;;;;20.46;58.97;100033.66;1644573;86;20171;-67
2022/08/01 01:29:53;;;;;;;;;;;;;;;20.39;59.07;100029.34;1656385;85;20202;-67
2022/08/01 01:32:38;;;;;;;;;;;;;;;20.34;59.25;100029.01;1647712;85;21797;-67
2022/08/01 01:35:08;;;;;;;;;;;;;;;20.29;59.44;100030.56;1644631;85;20186;-67
2022/08/01 01:37:34;;;;;;;;;;;;;;;20.28;59.49;100036.34;1647067;85;20215;-67
2022/08/01 01:40:02;;;;;;;;;;;;;;;20.26;59.55;100028.52;1646788;85;20543;-67
2022/08/01 01:42:29;;;;;;;;;;;;;;;20.24;59.67;100032.72;1648420;85;20162;-66
2022/08/01 01:44:55;;;;;;;;;;;;;;;20.22;59.79;100030.32;1628393;85;21765;-66
2022/08/01 01:47:22;;;;;;;;;;;;;;;20.22;59.80;100033.03;1647590;85;20214;-67
2022/08/01 01:49:48;;;;;;;;;;;;;;;20.23;59.91;100024.33;1647354;85;20176;-67
2022/08/01 01:52:16;;;;;;;;;;;;;;;20.25;59.97;100026.94;1648106;85;20439;-67
2022/08/01 01:54:45;;;;;;;;;;;;;;;20.31;59.91;100026.17;1644690;85;20477;-67
2022/08/01 01:57:12;;;;;;;;;;;;;;;20.34;59.79;100029.01;1645665;85;21280;-67
2022/08/01 01:59:39;;;;;;;;;;;;;;;20.36;59.67;100028.09;1647052;85;20556;-66
2022/08/01 02:02:06;;;;;;;;;;;;;;;20.40;59.53;100025.53;1648732;85;20206;-66
2022/08/01 02:04:35;;;;;;;;;;;;;;;20.43;59.45;100029.47;1647414;85;20147;-67
2022/08/01 02:07:02;;;;;;;;;;;;;;;20.48;59.32;100026.55;1646893;85;20656;-67
2022/08/01 02:09:28;;;;;;;;;;;;;;;20.51;59.22;100024.55;1647815;85;21176;-67
2022/08/01 02:11:55;;;;;;;;;;;;;;;20.45;59.14;100020.44;1650806;85;20193;-67
2022/08/01 02:14:22;;;;;;;;;;;;;;;20.39;59.27;100027.98;1647943;85;20181;-66
2022/08/01 02:16:49;;;;;;;;;;;;;;;20.38;59.33;100025.84;1648201;85;20217;-66
2022/08/01 02:19:19;;;;;;;;;;;;;;;20.36;59.29;100028.09;1647318;85;20726;-67
2022/08/01 02:21:55;;;;;;;;;;;;;;;20.33;59.40;100023.91;1647526;85;21159;-66
2022/08/01 02:24:31;;;;;;;;;;;;;;;20.30;59.50;100021.86;1646826;85;20717;-69
2022/08/01 02:27:00;;;;;;;;;;;;;;;20.33;59.55;100023.33;1647576;85;20189;-66
2022/08/01 02:29:30;;;;;;;;;;;;;;;20.34;59.56;100018.16;1662302;85;20208;-67
2022/08/01 02:31:57;;;;;;;;;;;;;;;20.31;59.66;100020.19;1655828;85;20222;-66
2022/08/01 02:34:23;;;;;;;;;;;;;;;20.29;59.63;100017.00;1653344;85;21953;-66
2022/08/01 02:36:49;;;;;;;;;;;;;;;20.33;59.44;100017.13;1654335;85;20268;-67
2022/08/01 02:39:16;;;;;;;;;;;;;;;20.34;59.27;100022.23;1635567;87;20230;-67
2022/08/01 02:41:45;;;;;;;;;;;;;;;20.34;59.35;100020.88;1647666;85;20424;-68
2022/08/01 02:44:24;;;;;;;;;;;;;;;20.32;59.18;100016.34;1648081;85;20178;-67
2022/08/01 02:46:55;;;;;;;;;;;;;;;20.33;59.13;100023.33;1646804;85;21802;-66
2022/08/01 02:49:21;;;;;;;;;;;;;;;20.36;58.96;100017.81;1647132;85;20168;-66
2022/08/01 02:51:48;;;;;;;;;;;;;;;20.38;58.90;100019.63;1646960;85;20182;-67
2022/08/01 02:54:16;;;;;;;;;;;;;;;20.45;58.57;100015.80;1647054;85;20170;-68
2022/08/01 02:56:42;;;;;;;;;;;;;;;20.52;58.42;100016.63;1648928;85;20189;-68
2022/08/01 02:59:12;;;;;;;;;;;;;;;20.52;58.31;100016.06;1647191;85;21796;-68
2022/08/01 03:01:39;;;;;;;;;;;;;;;20.53;58.23;100017.67;1649717;85;20163;-68
2022/08/01 03:04:05;;;;;;;;;;;;;;;20.49;58.20;100018.06;1647813;87;20174;-67
2022/08/01 03:06:33;;;;;;;;;;;;;;;20.51;58.17;100017.77;1648453;85;20155;-68
2022/08/01 03:09:01;;;;;;;;;;;;;;;20.53;58.05;100025.81;1650019;86;20201;-66
2022/08/01 03:11:28;;;;;;;;;;;;;;;20.55;57.92;100019.47;1649489;85;21135;-68
2022/08/01 03:13:55;;;;;;;;;;;;;;;20.58;57.89;100019.36;1647241;85;20154;-67
2022/08/01 03:16:22;;;;;;;;;;;;;;;20.54;57.77;100022.53;1647274;85;20213;-67
2022/08/01 03:18:49;;;;;;;;;;;;;;;20.54;57.65;100026.59;1647458;85;20182;-67
2022/08/01 03:21:16;;;;;;;;;;;;;;;20.56;57.57;100025.11;1647203;85;20219;-66
2022/08/01 03:23:42;;;;;;;;;;;;;;;20.57;57.35;100025.92;1646918;85;22259;-69
2022/08/01 03:26:09;;;;;;;;;;;;;;;20.58;57.10;100031.57;1647090;85;20225;-67
2022/08/01 03:28:35;;;;;;;;;;;;;;;20.62;57.07;100024.33;1647783;85;20229;-67
2022/08/01 03:31:02;;;;;;;;;;;;;;;20.63;57.01;100024.55;1645178;85;20250;-67
2022/08/01 03:33:29;;;;;;;;;;;;;;;20.69;57.05;100033.28;1645655;85;20245;-67
2022/08/01 03:35:55;;;;;;;;;;;;;;;20.70;56.77;100028.09;1647562;85;21254;-67
2022/08/01 03:38:24;;;;;;;;;;;;;;;20.72;56.55;100025.25;1647365;85;20138;-67
2022/08/01 03:40:53;;;;;;;;;;;;;;;20.74;56.58;100021.64;1646618;85;20198;-66
2022/08/01 03:43:33;;;;;;;;;;;;;;;20.76;56.40;100030.25;1666176;84;20180;-68
2022/08/01 03:46:03;;;;;;;;;;;;;;;20.80;56.27;100030.36;1666784;84;20254;-67
2022/08/01 03:48:30;;;;;;;;;;;;;;;20.80;56.21;100030.36;1667161;84;21169;-68
2022/08/01 03:50:57;;;;;;;;;;;;;;;20.79;56.21;100032.26;1667307;84;20243;-68
2022/08/01 03:53:25;;;;;;;;;;;;;;;20.79;55.98;100026.83;1665770;86;20165;-68
2022/08/01 03:55:52;;;;;;;;;;;;;;;20.85;56.03;100022.77;1668704;84;20168;-68
2022/08/01 03:58:18;;;;;;;;;;;;;;;20.89;55.42;100022.88;1668468;86;20175;-68
2022/08/01 04:00:45;;;;;;;;;;;;;;;20.93;55.32;100020.30;1668713;86;21787;-67
2022/08/01 04:03:12;;;;;;;;;;;;;;;20.93;55.62;100027.88;1668813;86;20176;-67
2022/08/01 04:05:43;;;;;;;;;;;;;;;20.94;55.70;100021.88;1650210;85;20212;-67
2022/08/01 04:08:09;;;;;;;;;;;;;;;20.97;55.59;100023.92;1666323;84;20247;-68
2022/08/01 04:10:37;;;;;;;;;;;;;;;21.00;55.91;100029.45;1666456;84;20231;-68
2022/08/01 04:13:03;;;;;;;;;;;;;;;21.05;55.81;100025.14;1658124;85;20826;-67
2022/08/01 04:15:31;;;;;;;;;;;;;;;21.09;55.41;100025.25;1623058;88;20145;-68
2022/08/01 04:17:59;;;;;;;;;;;;;;;21.17;55.59;100023.56;1652543;85;20444;-67
2022/08/01 04:20:26;;;;;;;;;;;;;;;21.24;55.40;100020.49;1651886;85;20265;-67
2022/08/01 04:22:52;;;;;;;;;;;;;;;21.34;55.06;100017.09;1654033;85;20267;-67
2022/08/01 04:25:27;;;;;;;;;;;;;;;21.38;55.03;100020.16;1654048;85;22074;-67
2022/08/01 04:27:54;;;;;;;;;;;;;;;21.43;54.76;100022.65;1651210;85;20147;-67
2022/08/01 04:30:24;;;;;;;;;;;;;;;21.48;54.73;100016.96;1652726;85;20158;-67
2022/08/01 04:32:50;;;;;;;;;;;;;;;21.54;54.60;100015.59;1653568;85;20240;-67
2022/08/01 04:35:17;;;;;;;;;;;;;;;21.63;53.98;100014.68;1649121;85;20417;-68
2022/08/01 04:37:44;;;;;;;;;;;;;;;21.64;53.44;100011.60;1624821;85;21183;-68
2022/08/01 04:40:12;;;;;;;;;;;;;;;21.68;53.30;100011.70;1653019;85;20228;-68
2022/08/01 04:42:45;;;;;;;;;;;;;;;21.78;53.03;100009.85;1645615;85;20136;-68
2022/08/01 04:45:12;;;;;;;;;;;;;;;21.84;52.74;100012.55;1627765;87;20502;-67
2022/08/01 04:47:38;;;;;;;;;;;;;;;21.94;52.64;100014.77;1636190;85;20181;-68
2022/08/01 04:50:09;;;;;;;;;;;;;;;22.05;52.71;100014.30;1651390;85;21080;-67
2022/08/01 04:52:37;;;;;;;;;;;;;;;22.15;52.66;100017.33;1651869;85;20218;-67
2022/08/01 04:55:05;;;;;;;;;;;;;;;22.23;51.40;100010.93;1651655;85;20252;-66
2022/08/01 04:57:38;;;;;;;;;;;;;;;22.34;51.81;100011.77;1651221;85;20152;-68
2022/08/01 05:00:06;;;;;;;;;;;;;;;22.44;51.28;100012.07;1660068;85;20145;-67
2022/08/01 05:02:32;;;;;;;;;;;;;;;22.54;50.92;100006.67;1645881;85;21141;-67
2022/08/01 05:05:33;;;;;;;;;;;;;;;22.63;50.32;99996.95;1630358;85;20187;-67
2022/08/01 05:08:00;;;;;;;;;;;;;;;22.74;49.70;99996.66;1650024;85;20196;-76
2022/08/01 05:10:27;;;;;;;;;;;;;;;22.91;50.02;100007.75;1646612;85;20151;-78
2022/08/01 05:12:54;;;;;;;;;;;;;;;23.04;49.25;100003.81;1652683;85;20176;-77
2022/08/01 05:15:21;;;;;;;;;;;;;;;23.16;48.88;100008.34;1648197;85;21091;-76
2022/08/01 05:17:47;;;;;;;;;;;;;;;23.26;48.90;100009.72;1644330;85;20241;-77
2022/08/01 05:20:13;;;;;;;;;;;;;;;23.34;48.80;100004.08;1650173;85;20113;-76
2022/08/01 05:22:40;;;;;;;;;;;;;;;23.46;48.61;100007.27;1646643;85;20146;-77
2022/08/01 05:25:07;;;;;;;;;;;;;;;23.60;48.70;100004.05;1645015;85;20150;-79
2022/08/01 05:27:39;;;;;;;;;;;;;;;23.74;48.06;99994.81;1643930;85;21781;-76
2022/08/01 05:30:03;;;;;;;;;;;;;;;23.86;48.11;100005.58;1646256;85;20193;-77
2022/08/01 05:32:31;;;;;;;;;;;;;;;23.91;46.94;99996.88;1647031;85;20175;-76
2022/08/01 05:34:58;;;;;;;;;;;;;;;23.94;45.85;100002.41;1644923;85;20165;-78
2022/08/01 05:37:24;;;;;;;;;;;;;;;23.97;46.46;100009.87;1646875;85;20190;-77
2022/08/01 05:39:50;;;;;;;;;;;;;;;24.05;46.12;100012.14;1647639;85;21178;-78
2022/08/01 05:42:17;;;;;;;;;;;;;;;24.06;45.27;100007.70;1648080;85;20426;-78
2022/08/01 05:44:43;;;;;;;;;;;;;;;24.10;45.84;100016.74;1646794;85;20229;-77
2022/08/01 05:47:09;;;;;;;;;;;;;;;24.18;46.00;100019.02;1648746;87;20234;-76
2022/08/01 05:49:36;;;;;;;;;;;;;;;24.30;45.26;100020.80;1648769;85;20220;-79
2022/08/01 05:52:02;;;;;;;;;;;;;;;24.42;45.14;100019.30;1647410;85;21155;-74
2022/08/01 05:54:29;;;;;;;;;;;;;;;24.54;45.29;100015.00;1647362;85;20580;-78
2022/08/01 05:56:59;;;;;;;;;;;;;;;24.68;45.09;100014.48;1655649;86;20176;-76
2022/08/01 05:59:24;;;;;;;;;;;;;;;24.79;44.95;100011.91;1644595;85;20207;-76
2022/08/01 06:01:50;;;;;;;;;;;;;;;24.84;44.12;100005.34;1646902;85;20286;-79
2022/08/01 06:04:16;;;;;;;;;;;;;;;24.85;44.48;99998.16;1647725;85;21568;-75
2022/08/01 06:06:42;;;;;;;;;;;;;;;24.95;44.43;100003.58;1646578;85;20177;-76
2022/08/01 06:09:09;;;;;;;;;;;;;;;25.06;44.31;100000.99;1647203;85;20418;-76
2022/08/01 06:11:35;;;;;;;;;;;;;;;25.18;43.90;100001.59;1646710;85;20215;-75
2022/08/01 06:14:02;;;;;;;;;;;;;;;25.28;43.65;99994.70;1647023;85;20179;-75
2022/08/01 06:16:28;;;;;;;;;;;;;;;25.35;43.37;99995.38;1649133;85;21192;-73
2022/08/01 06:18:55;;;;;;;;;;;;;;;25.36;42.81;99996.36;1647774;85;20189;-76
2022/08/01 06:21:21;;;;;;;;;;;;;;;25.39;42.97;99992.89;1647811;85;20142;-78
2022/08/01 06:23:48;;;;;;;;;;;;;;;25.49;43.04;99997.70;1649248;85;20207;-68
2022/08/01 06:26:19;;;;;;;;;;;;;;;25.61;42.70;99987.12;1647216;85;20218;-67
2022/08/01 06:28:45;;;;;;;;;;;;;;;25.68;41.66;99993.25;1648514;85;21192;-67
2022/08/01 06:31:13;;;;;;;;;;;;;;;25.68;42.24;99995.98;1644419;85;20143;-67
2022/08/01 06:33:40;;;;;;;;;;;;;;;25.71;42.71;99991.92;1647010;85;20502;-66
2022/08/01 06:36:06;;;;;;;;;;;;;;;25.77;42.33;99991.61;1663268;85;20141;-67
2022/08/01 06:38:33;;;;;;;;;;;;;;;25.83;42.06;99986.83;1661587;85;20152;-68
2022/08/01 06:40:59;;;;;;;;;;;;;;;25.93;41.94;99984.00;1667550;84;21696;-67
2022/08/01 06:43:25;;;;;;;;;;;;;;;25.94;41.33;99979.51;1662947;84;20188;-67
2022/08/01 06:45:52;;;;;;;;;;;;;;;25.93;41.76;99974.42;1666256;84;20261;-68
2022/08/01 06:48:18;;;;;;;;;;;;;;;25.89;41.47;99972.98;1665583;84;20211;-67
2022/08/01 06:50:45;;;;;;;;;;;;;;;25.91;41.66;99974.00;1664986;84;20997;-67
2022/08/01 06:53:12;;;;;;;;;;;;;;;25.94;41.46;99971.88;1661180;84;21176;-66
2022/08/01 06:55:39;;;;;;;;;;;;;;;25.98;41.16;99977.39;1666089;84;20289;-67
2022/08/01 06:58:06;;;;;;;;;;;;;;;26.06;41.53;99977.09;1664142;84;20176;-66
2022/08/01 07:00:32;;;;;;;;;;;;;;;26.20;41.00;99979.96;1665460;84;20188;-74
2022/08/01 07:02:59;;;;;;;;;;;;;;;26.36;41.05;99982.45;1663502;84;20200;-75
2022/08/01 07:05:26;;;;;;;;;;;;;;;26.52;40.77;99982.23;1666534;84;21147;-66
2022/08/01 07:07:54;;;;;;;;;;;;;;;26.65;40.83;99982.15;1666625;84;20176;-67
2022/08/01 07:10:21;;;;;;;;;;;;;;;26.78;39.53;99984.56;1666918;84;20435;-68
2022/08/01 07:12:47;;;;;;;;;;;;;;;26.81;40.05;99979.69;1666447;84;20184;-67
2022/08/01 07:15:15;;;;;;;;;;;;;;;26.87;40.23;99976.80;1675256;84;20445;-71
2022/08/01 07:17:42;;;;;;;;;;;;;;;26.90;39.72;99979.56;1672058;84;21158;-68
2022/08/01 07:20:11;;;;;;;;;;;;;;;26.97;39.78;99971.19;1664679;84;20222;-74
2022/08/01 07:22:38;;;;;;;;;;;;;;;27.03;39.65;99969.08;1665923;84;20273;-75
2022/08/01 07:25:05;;;;;;;;;;;;;;;27.08;39.38;99969.28;1668178;85;20203;-66
2022/08/01 07:27:32;;;;;;;;;;;;;;;26.97;39.71;99962.97;1668138;86;20227;-68
2022/08/01 07:29:58;;;;;;;;;;;;;;;26.88;40.11;99973.70;1667857;86;21891;-67
2022/08/01 07:32:25;;;;;;;;;;;;;;;26.86;40.30;99973.88;1667775;85;20176;-66
2022/08/01 07:34:51;;;;;;;;;;;;;;;26.90;40.51;99974.67;1665826;84;20203;-67
2022/08/01 07:37:17;;;;;;;;;;;;;;;26.97;39.84;99971.19;1666315;84;20175;-67
2022/08/01 07:39:44;;;;;;;;;;;;;;;27.02;39.72;99968.10;1668110;84;20208;-67
2022/08/01 07:42:10;;;;;;;;;;;;;;;27.11;39.37;99965.78;1668746;84;21153;-66
2022/08/01 07:44:37;;;;;;;;;;;;;;;27.23;38.94;99965.49;1665755;84;20482;-66
2022/08/01 07:47:04;;;;;;;;;;;;;;;27.46;39.38;99961.68;1664479;84;20212;-68
2022/08/01 07:49:31;;;;;;;;;;;;;;;27.64;38.73;99962.55;1667106;84;21045;-68
2022/08/01 07:51:57;;;;;;;;;;;;;;;27.83;37.97;99958.68;1666320;84;20224;-67
2022/08/01 07:54:25;;;;;;;;;;;;;;;28.02;38.55;99950.69;1663326;84;21990;-66
2022/08/01 07:56:52;;;;;;;;;;;;;;;28.24;39.06;99962.48;1666266;84;20176;-67
2022/08/01 07:59:22;;;;;;;;;;;;;;;28.38;37.80;99962.48;1666488;84;20251;-66
2022/08/01 08:01:47;;;;;;;;;;;;;;;28.48;37.78;99965.06;1665960;84;20273;-67
2022/08/01 08:04:14;;;;;;;;;;;;;;;28.51;37.48;99963.69;1666428;84;20231;-66
2022/08/01 08:06:41;;;;;;;;;;;;;;;28.54;37.74;99959.38;1665916;84;21146;-66
2022/08/01 08:09:07;;;;;;;;;;;;;;;28.64;37.76;99958.58;1666349;84;20172;-65
2022/08/01 08:11:34;;;;;;;;;;;;;;;28.68;38.10;99963.47;1664880;84;20421;-66
2022/08/01 08:14:00;;;;;;;;;;;;;;;28.74;37.42;99963.28;1665816;84;20775;-67
2022/08/01 08:16:26;;;;;;;;;;;;;;;28.81;37.26;99953.45;1668236;86;20180;-67
2022/08/01 08:18:53;;;;;;;;;;;;;;;28.84;36.85;99946.58;1668753;86;21062;-66
2022/08/01 08:21:19;;;;;;;;;;;;;;;28.89;37.17;99944.81;1668428;84;20530;-67
2022/08/01 08:26:32;;;;;;;;;;;;;;;28.92;37.28;99934.39;1665996;84;20403;-67
2022/08/01 08:28:58;;;;;;;;;;;;;;;28.96;37.46;99935.76;1667118;84;20278;-66
2022/08/01 08:31:25;;;;;;;;;;;;;;;28.95;37.41;99936.33;1666191;84;21145;-66
2022/08/01 08:33:51;;;;;;;;;;;;;;;29.06;37.26;99932.81;1663173;84;20231;-66
2022/08/01 08:36:18;;;;;;;;;;;;;;;29.13;37.29;99932.19;1665468;84;20466;-66
2022/08/01 08:38:44;;;;;;;;;;;;;;;29.17;37.53;99929.42;1667336;84;20172;-67
2022/08/01 08:41:10;;;;;;;;;;;;;;;29.27;37.72;99926.45;1668821;86;20227;-66
2022/08/01 08:43:37;;;;;;;;;;;;;;;29.42;37.66;99925.98;1665559;84;21139;-66
2022/08/01 08:46:03;;;;;;;;;;;;;;;29.58;37.07;99932.39;1667041;84;20172;-66
2022/08/01 08:48:30;;;;;;;;;;;;;;;29.77;37.16;99927.59;1668834;86;20278;-66
2022/08/01 08:50:57;;;;;;;;;;;;;;;29.92;36.99;99927.69;1668082;84;20168;-67
2022/08/01 08:53:23;;;;;;;;;;;;;;;30.06;36.55;99926.80;1667837;84;20234;-66
2022/08/01 08:55:50;;;;;;;;;;;;;;;30.13;36.76;99929.50;1665156;84;21117;-68
2022/08/01 08:58:17;;;;;;;;;;;;;;;30.13;36.72;99932.25;1666983;84;20458;-68
2022/08/01 09:00:43;;;;;;;;;;;;;;;30.13;36.53;99926.14;1668873;85;20172;-67
2022/08/01 09:03:09;;;;;;;;;;;;;;;30.19;36.90;99923.77;1667928;84;20133;-67
2022/08/01 09:05:37;;;;;;;;;;;;;;;30.25;36.86;99924.13;1668894;86;20203;-66
2022/08/01 09:08:08;;;;;;;;;;;;;;;30.28;37.02;99927.45;1668804;86;21148;-67
2022/08/01 09:10:36;;;;;;;;;;;;;;;30.29;37.09;99933.14;1667374;84;20256;-66
2022/08/01 09:13:11;;;;;;;;;;;;;;;30.44;37.53;99929.09;1665459;84;20181;-67
2022/08/01 09:15:44;;;;;;;;;;;;;;;30.61;37.10;99931.48;1666475;84;20160;-67
2022/08/01 09:18:35;;;;;;;;;;;;;;;30.65;36.65;99932.23;1668043;84;20491;-68
2022/08/01 09:21:17;;;;;;;;;;;;;;;30.70;36.89;99921.34;1664659;84;21186;-67
2022/08/01 09:23:47;;;;;;;;;;;;;;;30.78;36.66;99925.63;1665071;84;20224;-67
2022/08/01 09:26:16;;;;;;;;;;;;;;;30.98;36.71;99924.42;1665547;84;20466;-65
2022/08/01 09:28:42;;;;;;;;;;;;;;;31.24;36.96;99920.18;1665858;84;20278;-66
2022/08/01 09:31:12;;;;;;;;;;;;;;;31.49;36.35;99930.91;1665707;84;20231;-67
2022/08/01 09:33:49;;;;;;;;;;;;;;;31.74;36.00;99924.45;1641104;87;21230;-68
2022/08/01 09:36:16;;;;;;;;;;;;;;;31.84;34.95;99924.11;1644721;84;20213;-67
2022/08/01 09:38:42;;;;;;;;;;;;;;;31.83;35.23;99925.92;1668931;84;20712;-67
2022/08/01 09:41:11;;;;;;;;;;;;;;;31.83;35.86;99926.70;1668670;86;20176;-67
2022/08/01 09:43:37;;;;;;;;;;;;;;;31.85;35.77;99926.27;1668961;86;20183;-67
2022/08/01 09:46:05;;;;;;;;;;;;;;;31.92;35.40;99926.18;1668744;86;21096;-67
2022/08/01 09:48:32;;;;;;;;;;;;;;;32.15;36.03;99932.33;1669799;84;20176;-67
2022/08/01 09:50:59;;;;;;;;;;;;;;;32.50;35.68;99928.83;1668055;86;20184;-66
2022/08/01 09:53:25;;;;;;;;;;;;;;;32.70;34.34;99937.33;1666063;84;20429;-67
2022/08/01 09:55:53;;;;;;;;;;;;;;;32.71;34.43;99936.75;1668832;85;20175;-66
2022/08/01 09:58:20;;;;;;;;;;;;;;;32.66;33.89;99933.85;1668479;84;21156;-67
2022/08/01 10:00:59;;;;;;;;;;;;;;;32.50;33.82;99931.59;1668896;85;20176;-66
2022/08/01 10:03:26;;;;;;;;;;;;;;;32.44;34.52;99918.84;1668188;84;20480;-67
2022/08/01 10:05:53;;;;;;;;;;;;;;;32.52;34.60;99927.81;1668856;86;20176;-66
2022/08/01 10:08:23;;;;;;;;;;;;;;;32.67;34.08;99926.34;1668254;84;20529;-66
2022/08/01 10:11:08;;;;;;;;;;;;;;;32.87;33.47;99923.02;1667912;84;21190;-65
2022/08/01 10:13:35;;;;;;;;;;;;;;;33.01;33.40;99913.67;1665916;84;20308;-66
2022/08/01 10:16:01;;;;;;;;;;;;;;;33.21;33.87;99920.58;1665837;84;20470;-66
2022/08/01 10:18:31;;;;;;;;;;;;;;;33.31;33.71;99918.19;1649094;84;20200;-66
2022/08/01 10:20:58;;;;;;;;;;;;;;;33.37;32.99;99922.63;1665483;84;20240;-66
2022/08/01 10:23:26;;;;;;;;;;;;;;;33.36;33.07;99910.75;1667691;84;21112;-66
2022/08/01 10:25:52;;;;;;;;;;;;;;;33.30;32.67;99917.22;1668725;86;20538;-66
2022/08/01 10:28:19;;;;;;;;;;;;;;;33.25;33.48;99920.50;1666683;84;20226;-66
2022/08/01 10:30:46;;;;;;;;;;;;;;;33.32;33.51;99918.97;1666572;84;21003;-65
2022/08/01 10:33:13;;;;;;;;;;;;;;;33.35;33.76;99918.88;1665624;84;20235;-65
2022/08/01 10:35:40;;;;;;;;;;;;;;;33.33;34.46;99917.75;1665435;84;21154;-68
2022/08/01 10:38:06;;;;;;;;;;;;;;;33.30;32.74;99917.22;1665394;84;20211;-66
2022/08/01 10:40:33;;;;;;;;;;;;;;;33.23;32.64;99920.91;1666044;84;20443;-66
2022/08/01 10:42:59;;;;;;;;;;;;;;;33.19;32.91;99922.20;1663416;84;20636;-67
2022/08/01 10:45:26;;;;;;;;;;;;;;;33.19;31.95;99918.83;1667357;84;20164;-66
2022/08/01 10:48:06;;;;;;;;;;;;;;;33.17;32.23;99919.88;1668968;86;21216;-66
2022/08/01 10:50:36;;;;;;;;;;;;;;;33.31;32.48;99916.80;1668078;84;20534;-66
2022/08/01 10:53:15;;;;;;;;;;;;;;;33.47;32.25;99911.92;1667103;84;20306;-66
2022/08/01 10:55:49;;;;;;;;;;;;;;;33.56;32.16;99916.27;1658929;85;20220;-66
2022/08/01 10:58:31;;;;;;;;;;;;;;;33.64;33.13;99914.14;1668741;86;20256;-67
2022/08/01 11:01:25;;;;;;;;;;;;;;;33.74;32.79;99913.11;1666783;84;21090;-67
2022/08/01 11:04:04;;;;;;;;;;;;;;;33.76;32.17;99907.13;1665541;84;20196;-66
2022/08/01 11:06:43;;;;;;;;;;;;;;;33.62;32.09;99911.78;1668577;86;20205;-66
2022/08/01 11:09:16;;;;;;;;;;;;;;;33.41;32.89;99905.94;1651172;86;20175;-67
2022/08/01 11:12:05;;;;;;;;;;;;;;;33.20;33.03;99909.92;1667101;86;20216;-66
2022/08/01 11:14:32;;;;;;;;;;;;;;;33.13;32.96;99915.00;1663979;84;21899;-66
2022/08/01 11:17:35;;;;;;;;;;;;;;;33.15;32.99;99915.36;1668068;84;20277;-66
2022/08/01 11:20:12;;;;;;;;;;;;;;;33.15;33.13;99916.75;1641679;86;20180;-66
2022/08/01 11:23:05;;;;;;;;;;;;;;;32.90;33.08;99922.13;1646807;84;20247;-66
2022/08/01 11:25:45;;;;;;;;;;;;;;;32.80;33.44;99918.97;1666600;84;20196;-65
2022/08/01 11:28:23;;;;;;;;;;;;;;;32.77;33.94;99924.58;1668587;85;21142;-65
2022/08/01 11:30:54;;;;;;;;;;;;;;;32.73;34.22;99923.88;1667403;84;20689;-65
2022/08/01 11:33:44;;;;;;;;;;;;;;;32.63;34.61;99925.63;1664413;84;20478;-65
2022/08/01 11:36:17;;;;;;;;;;;;;;;32.72;34.84;99914.80;1668620;86;20466;-65
2022/08/01 11:38:50;;;;;;;;;;;;;;;32.66;34.30;99917.87;1668388;84;20274;-67
2022/08/01 11:41:24;;;;;;;;;;;;;;;32.61;34.02;99926.06;1641603;87;21214;-67
2022/08/01 11:44:05;;;;;;;;;;;;;;;32.51;34.15;99921.52;1655971;84;20245;-66
2022/08/01 11:47:03;;;;;;;;;;;;;;;32.57;34.57;99917.03;1667443;84;20172;-66
2022/08/01 11:49:44;;;;;;;;;;;;;;;32.71;34.01;99913.25;1668007;84;20268;-66
2022/08/01 11:52:28;;;;;;;;;;;;;;;32.91;34.49;99914.03;1664925;84;20474;-66
2022/08/01 11:55:00;;;;;;;;;;;;;;;33.20;33.96;99919.00;1665347;84;21097;-65
2022/08/01 11:57:34;;;;;;;;;;;;;;;33.39;34.13;99911.28;1660759;84;20162;-66
2022/08/01 12:00:00;;;;;;;;;;;;;;;33.52;33.55;99905.11;1666406;84;20207;-66
2022/08/01 12:02:32;;;;;;;;;;;;;;;33.63;33.59;99907.05;1665814;84;20207;-66
2022/08/01 12:05:07;;;;;;;;;;;;;;;33.75;32.84;99904.19;1663811;84;20179;-67
2022/08/01 12:07:34;;;;;;;;;;;;;;;33.87;32.21;99899.36;1665875;84;21113;-65
2022/08/01 12:10:09;;;;;;;;;;;;;;;33.85;32.43;99905.31;1665690;84;20211;-66
2022/08/01 12:12:37;;;;;;;;;;;;;;;33.80;32.76;99907.23;1664044;84;20211;-66
2022/08/01 12:15:06;;;;;;;;;;;;;;;33.70;32.73;99916.58;1666752;84;20262;-66
2022/08/01 12:17:38;;;;;;;;;;;;;;;33.70;32.40;99920.73;1665259;84;20163;-67
2022/08/01 12:20:07;;;;;;;;;;;;;;;33.50;31.97;99906.94;1646531;84;21158;-68
2022/08/01 12:22:34;;;;;;;;;;;;;;;33.02;32.43;99915.23;1665657;84;20204;-67
2022/08/01 12:25:10;;;;;;;;;;;;;;;32.70;33.03;99925.49;1668749;86;20180;-67
2022/08/01 12:27:37;;;;;;;;;;;;;;;32.65;33.92;99921.84;1668322;85;20211;-67
2022/08/01 12:30:10;;;;;;;;;;;;;;;32.69;34.20;99916.42;1667317;85;20215;-66
2022/08/01 12:32:38;;;;;;;;;;;;;;;32.63;33.58;99920.09;1668009;85;21101;-65
2022/08/01 12:35:11;;;;;;;;;;;;;;;32.63;34.66;99918.72;1668688;86;20477;-66
2022/08/01 12:37:43;;;;;;;;;;;;;;;32.71;34.80;99917.39;1667448;85;20218;-66
2022/08/01 12:40:16;;;;;;;;;;;;;;;32.85;34.22;99912.96;1668712;85;20201;-66
2022/08/01 12:42:45;;;;;;;;;;;;;;;33.04;33.57;99910.06;1668106;86;20208;-67
2022/08/01 12:45:16;;;;;;;;;;;;;;;33.19;33.38;99904.22;1668894;85;21126;-67
2022/08/01 12:47:43;;;;;;;;;;;;;;;33.27;32.74;99912.53;1668673;85;20176;-66
2022/08/01 12:50:19;;;;;;;;;;;;;;;33.35;33.35;99913.95;1668862;86;32678;-66
2022/08/01 12:52:47;;;;;;;;;;;;;;;33.51;32.98;99913.25;1668121;84;20223;-66
2022/08/01 12:55:17;;;;;;;;;;;;;;;33.65;32.80;99914.92;1666127;84;20228;-66
2022/08/01 12:57:52;;;;;;;;;;;;;;;33.59;31.76;99914.03;1663068;84;21137;-66